NKS386 KATL-KFLL
Flight info
| Callsign | NKS386 |
|---|---|
| Flight time | 1h 27m |
| Altitude | 37000 |
| Route | SMLTZ3 WALET ZPLEN TEEKY4 |
| Aircraft | A320/M-SDE3FGHIRWY/LB1 |
Departure
| Time | 2026-05-03 21:04 |
|---|---|
| Airport | Hartsfield Jackson Atlanta International Airport (KATL) |
Arrival
| Time | 2026-05-03 22:31 |
|---|---|
| Airport | Fort Lauderdale Hollywood International Airport (KFLL) |
| Time | Latitude | Longitude | Altitude | Speed | Heading |
|---|---|---|---|---|---|
| 2026-05-03 20:23 | 33.63784 | -84.42986 | 1007 ft | 0 kts | 88° |
| 2026-05-03 20:44 | 33.63784 | -84.43011 | 1006 ft | 4 kts | 97° |
| 2026-05-03 20:45 | 33.63791 | -84.43041 | 1006 ft | 4 kts | 119° |
| 2026-05-03 20:45 | 33.63800 | -84.43058 | 1006 ft | 4 kts | 147° |
| 2026-05-03 20:45 | 33.63813 | -84.43064 | 1006 ft | 0 kts | 180° |
| 2026-05-03 20:46 | 33.63809 | -84.43064 | 1006 ft | 1 kts | 180° |
| 2026-05-03 20:47 | 33.63806 | -84.43064 | 1006 ft | 0 kts | 180° |
| 2026-05-03 20:47 | 33.63805 | -84.43064 | 1006 ft | 0 kts | 182° |
| 2026-05-03 20:47 | 33.63802 | -84.43068 | 1006 ft | 1 kts | 210° |
| 2026-05-03 20:48 | 33.63797 | -84.43081 | 1006 ft | 3 kts | 245° |
| 2026-05-03 20:48 | 33.63790 | -84.43111 | 1006 ft | 5 kts | 252° |
| 2026-05-03 20:48 | 33.63769 | -84.43133 | 1006 ft | 4 kts | 200° |
| 2026-05-03 20:48 | 33.63763 | -84.43134 | 1006 ft | 1 kts | 191° |
| 2026-05-03 20:49 | 33.63751 | -84.43133 | 1006 ft | 0 kts | 176° |
| 2026-05-03 20:49 | 33.63749 | -84.43133 | 1006 ft | 1 kts | 176° |
| 2026-05-03 20:49 | 33.63748 | -84.43133 | 1006 ft | 0 kts | 176° |
| 2026-05-03 20:55 | 33.63740 | -84.43132 | 1006 ft | 2 kts | 175° |
| 2026-05-03 20:55 | 33.63710 | -84.43126 | 1006 ft | 9 kts | 161° |
| 2026-05-03 20:55 | 33.63666 | -84.43011 | 1006 ft | 19 kts | 93° |
| 2026-05-03 20:56 | 33.63664 | -84.42847 | 1006 ft | 21 kts | 90° |
| 2026-05-03 20:56 | 33.63657 | -84.42666 | 1007 ft | 23 kts | 93° |
| 2026-05-03 20:56 | 33.63655 | -84.42472 | 1007 ft | 25 kts | 90° |
| 2026-05-03 20:56 | 33.63656 | -84.42257 | 1007 ft | 27 kts | 90° |
| 2026-05-03 20:57 | 33.63656 | -84.42028 | 1007 ft | 28 kts | 90° |
| 2026-05-03 20:57 | 33.63654 | -84.41785 | 1006 ft | 30 kts | 90° |
| 2026-05-03 20:57 | 33.63654 | -84.41528 | 1006 ft | 32 kts | 89° |
| 2026-05-03 20:57 | 33.63656 | -84.41322 | 1006 ft | 18 kts | 90° |
| 2026-05-03 20:58 | 33.63656 | -84.41162 | 1006 ft | 20 kts | 90° |
| 2026-05-03 20:58 | 33.63654 | -84.41007 | 1006 ft | 12 kts | 89° |
| 2026-05-03 20:58 | 33.63644 | -84.40919 | 1006 ft | 4 kts | 129° |
| 2026-05-03 20:58 | 33.63636 | -84.40912 | 1006 ft | 1 kts | 148° |
| 2026-05-03 20:59 | 33.63623 | -84.40908 | 1006 ft | 3 kts | 169° |
| 2026-05-03 20:59 | 33.63589 | -84.40908 | 1006 ft | 6 kts | 181° |
| 2026-05-03 20:59 | 33.63560 | -84.40909 | 1006 ft | 1 kts | 181° |
| 2026-05-03 20:59 | 33.63533 | -84.40912 | 1007 ft | 7 kts | 188° |
| 2026-05-03 21:00 | 33.63473 | -84.40948 | 1007 ft | 11 kts | 239° |
| 2026-05-03 21:00 | 33.63469 | -84.40973 | 1007 ft | 0 kts | 268° |
| 2026-05-03 21:01 | 33.63469 | -84.40975 | 1007 ft | 0 kts | 271° |
| 2026-05-03 21:03 | 33.63469 | -84.40979 | 1007 ft | 3 kts | 271° |
| 2026-05-03 21:03 | 33.63471 | -84.41238 | 1005 ft | 73 kts | 270° |
| 2026-05-03 21:03 | 33.63470 | -84.42172 | 1007 ft | 147 kts | 270° |
| 2026-05-03 21:03 | 33.63482 | -84.43537 | 1483 ft | 169 kts | 272° |
| 2026-05-03 21:04 | 33.63484 | -84.45013 | 2181 ft | 187 kts | 271° |
| 2026-05-03 21:04 | 33.63480 | -84.46672 | 2574 ft | 211 kts | 270° |
| 2026-05-03 21:04 | 33.63475 | -84.48536 | 3008 ft | 235 kts | 271° |
| 2026-05-03 21:04 | 33.63471 | -84.50576 | 3609 ft | 251 kts | 271° |
| 2026-05-03 21:05 | 33.63467 | -84.52695 | 4534 ft | 255 kts | 270° |
| 2026-05-03 21:05 | 33.63462 | -84.54839 | 5399 ft | 260 kts | 271° |
| 2026-05-03 21:05 | 33.63458 | -84.56999 | 6299 ft | 263 kts | 271° |
| 2026-05-03 21:05 | 33.63455 | -84.59243 | 7155 ft | 267 kts | 271° |
| 2026-05-03 21:06 | 33.63455 | -84.61451 | 8013 ft | 270 kts | 271° |
| 2026-05-03 21:06 | 33.63235 | -84.63705 | 8856 ft | 276 kts | 255° |
| 2026-05-03 21:06 | 33.62396 | -84.65798 | 9684 ft | 283 kts | 236° |
| 2026-05-03 21:06 | 33.60978 | -84.67470 | 10457 ft | 291 kts | 216° |
| 2026-05-03 21:07 | 33.59173 | -84.68620 | 11211 ft | 298 kts | 204° |
| 2026-05-03 21:07 | 33.57155 | -84.69248 | 11966 ft | 304 kts | 189° |
| 2026-05-03 21:07 | 33.55019 | -84.69249 | 12711 ft | 311 kts | 175° |
| 2026-05-03 21:07 | 33.52873 | -84.68853 | 13468 ft | 314 kts | 174° |
| 2026-05-03 21:08 | 33.50705 | -84.68444 | 14183 ft | 317 kts | 174° |
| 2026-05-03 21:08 | 33.48520 | -84.68030 | 14838 ft | 319 kts | 174° |
| 2026-05-03 21:08 | 33.46318 | -84.67614 | 15497 ft | 322 kts | 174° |
| 2026-05-03 21:08 | 33.44104 | -84.67126 | 16139 ft | 326 kts | 167° |
| 2026-05-03 21:09 | 33.41975 | -84.66114 | 16784 ft | 334 kts | 154° |
| 2026-05-03 21:09 | 33.40014 | -84.64488 | 17004 ft | 356 kts | 140° |
| 2026-05-03 21:09 | 33.38196 | -84.62340 | 17145 ft | 375 kts | 137° |
| 2026-05-03 21:09 | 33.36323 | -84.60100 | 17539 ft | 384 kts | 137° |
| 2026-05-03 21:10 | 33.34414 | -84.57829 | 18097 ft | 389 kts | 137° |
| 2026-05-03 21:10 | 33.32483 | -84.55543 | 18660 ft | 393 kts | 138° |
| 2026-05-03 21:10 | 33.30530 | -84.53234 | 19210 ft | 396 kts | 138° |
| 2026-05-03 21:10 | 33.28562 | -84.50914 | 19771 ft | 399 kts | 138° |
| 2026-05-03 21:11 | 33.26577 | -84.48580 | 20342 ft | 402 kts | 138° |
| 2026-05-03 21:11 | 33.24573 | -84.46227 | 20909 ft | 405 kts | 138° |
| 2026-05-03 21:11 | 33.22555 | -84.43859 | 21448 ft | 408 kts | 138° |
| 2026-05-03 21:11 | 33.20524 | -84.41474 | 21982 ft | 411 kts | 138° |
| 2026-05-03 21:12 | 33.18501 | -84.39096 | 22514 ft | 414 kts | 138° |
| 2026-05-03 21:12 | 33.16413 | -84.36640 | 23069 ft | 417 kts | 138° |
| 2026-05-03 21:12 | 33.14339 | -84.34203 | 23594 ft | 420 kts | 139° |
| 2026-05-03 21:12 | 33.12246 | -84.31745 | 24039 ft | 424 kts | 139° |
| 2026-05-03 21:13 | 33.10134 | -84.29267 | 24447 ft | 427 kts | 139° |
| 2026-05-03 21:13 | 33.08035 | -84.26808 | 24833 ft | 430 kts | 139° |
| 2026-05-03 21:13 | 33.05890 | -84.24302 | 25218 ft | 433 kts | 140° |
| 2026-05-03 21:13 | 33.03727 | -84.21780 | 25606 ft | 436 kts | 140° |
| 2026-05-03 21:14 | 33.01489 | -84.19333 | 25978 ft | 436 kts | 147° |
| 2026-05-03 21:14 | 32.98995 | -84.17315 | 26359 ft | 432 kts | 156° |
| 2026-05-03 21:14 | 32.96298 | -84.15798 | 26743 ft | 427 kts | 166° |
| 2026-05-03 21:14 | 32.93491 | -84.14632 | 27126 ft | 428 kts | 167° |
| 2026-05-03 21:15 | 32.90663 | -84.13473 | 27503 ft | 430 kts | 167° |
| 2026-05-03 21:15 | 32.87821 | -84.12308 | 27887 ft | 433 kts | 168° |
| 2026-05-03 21:15 | 32.84967 | -84.11137 | 28268 ft | 435 kts | 168° |
| 2026-05-03 21:15 | 32.82094 | -84.09954 | 28649 ft | 437 kts | 168° |
| 2026-05-03 21:16 | 32.79214 | -84.08770 | 29012 ft | 440 kts | 168° |
| 2026-05-03 21:16 | 32.76314 | -84.07575 | 29371 ft | 442 kts | 168° |
| 2026-05-03 21:16 | 32.73399 | -84.06375 | 29695 ft | 444 kts | 169° |
| 2026-05-03 21:16 | 32.70472 | -84.05172 | 30059 ft | 446 kts | 169° |
| 2026-05-03 21:17 | 32.67528 | -84.03965 | 30380 ft | 448 kts | 169° |
| 2026-05-03 21:17 | 32.65572 | -84.03162 | 30588 ft | 449 kts | 169° |
| 2026-05-03 21:17 | 32.61605 | -84.01536 | 31011 ft | 451 kts | 169° |
| 2026-05-03 21:17 | 32.58668 | -84.00336 | 31323 ft | 452 kts | 169° |
| 2026-05-03 21:18 | 32.55688 | -83.99119 | 31654 ft | 453 kts | 169° |
| 2026-05-03 21:18 | 32.52721 | -83.97902 | 32096 ft | 451 kts | 170° |
| 2026-05-03 21:18 | 32.49761 | -83.96687 | 32554 ft | 448 kts | 170° |
| 2026-05-03 21:18 | 32.46821 | -83.95482 | 32981 ft | 446 kts | 171° |
| 2026-05-03 21:19 | 32.43895 | -83.94286 | 33456 ft | 443 kts | 171° |
| 2026-05-03 21:19 | 32.40985 | -83.93099 | 33936 ft | 440 kts | 171° |
| 2026-05-03 21:19 | 32.38096 | -83.91925 | 34367 ft | 438 kts | 171° |
| 2026-05-03 21:19 | 32.35215 | -83.90769 | 34723 ft | 436 kts | 173° |
| 2026-05-03 21:20 | 32.32333 | -83.89685 | 35060 ft | 433 kts | 174° |
| 2026-05-03 21:20 | 32.29449 | -83.88658 | 35383 ft | 432 kts | 174° |
| 2026-05-03 21:20 | 32.26569 | -83.87661 | 35711 ft | 431 kts | 175° |
| 2026-05-03 21:20 | 32.23696 | -83.86670 | 36034 ft | 430 kts | 175° |
| 2026-05-03 21:21 | 32.20823 | -83.85668 | 36345 ft | 430 kts | 175° |
| 2026-05-03 21:21 | 32.17959 | -83.84655 | 36608 ft | 429 kts | 175° |
| 2026-05-03 21:21 | 32.15109 | -83.83634 | 36937 ft | 428 kts | 175° |
| 2026-05-03 21:21 | 32.12257 | -83.82610 | 37119 ft | 428 kts | 175° |
| 2026-05-03 21:22 | 32.06569 | -83.80569 | 37141 ft | 427 kts | 175° |
| 2026-05-03 21:22 | 32.00892 | -83.78535 | 37140 ft | 426 kts | 175° |
| 2026-05-03 21:23 | 31.95212 | -83.76509 | 37144 ft | 426 kts | 175° |
| 2026-05-03 21:23 | 31.89561 | -83.74493 | 37137 ft | 426 kts | 175° |
| 2026-05-03 21:24 | 31.83883 | -83.72478 | 37138 ft | 426 kts | 175° |
| 2026-05-03 21:24 | 31.78206 | -83.70476 | 37145 ft | 426 kts | 175° |
| 2026-05-03 21:25 | 31.72526 | -83.68464 | 37153 ft | 426 kts | 175° |
| 2026-05-03 21:25 | 31.66843 | -83.66429 | 37158 ft | 427 kts | 174° |
| 2026-05-03 21:26 | 31.61183 | -83.64265 | 37132 ft | 428 kts | 174° |
| 2026-05-03 21:26 | 31.55525 | -83.62046 | 37148 ft | 428 kts | 174° |
| 2026-05-03 21:27 | 31.50832 | -83.60224 | 37154 ft | 427 kts | 174° |
| 2026-05-03 21:27 | 31.45174 | -83.58056 | 37158 ft | 427 kts | 174° |
| 2026-05-03 21:28 | 31.39525 | -83.55900 | 37159 ft | 427 kts | 174° |
| 2026-05-03 21:28 | 31.33884 | -83.53750 | 37118 ft | 426 kts | 175° |
| 2026-05-03 21:29 | 31.28246 | -83.51605 | 37133 ft | 425 kts | 175° |
| 2026-05-03 21:29 | 31.22618 | -83.49460 | 37148 ft | 425 kts | 175° |
| 2026-05-03 21:30 | 31.17001 | -83.47326 | 37149 ft | 424 kts | 175° |
| 2026-05-03 21:30 | 31.11386 | -83.45190 | 37144 ft | 424 kts | 175° |
| 2026-05-03 21:31 | 31.05773 | -83.43054 | 37096 ft | 424 kts | 175° |
| 2026-05-03 21:31 | 31.00158 | -83.40924 | 37117 ft | 423 kts | 175° |
| 2026-05-03 21:32 | 30.94556 | -83.38815 | 37124 ft | 423 kts | 175° |
| 2026-05-03 21:32 | 30.88954 | -83.36697 | 37140 ft | 423 kts | 175° |
| 2026-05-03 21:33 | 30.83384 | -83.34587 | 37138 ft | 423 kts | 175° |
| 2026-05-03 21:33 | 30.77774 | -83.32470 | 37091 ft | 423 kts | 175° |
| 2026-05-03 21:34 | 30.72165 | -83.30358 | 37116 ft | 424 kts | 175° |
| 2026-05-03 21:34 | 30.69389 | -83.29061 | 37123 ft | 436 kts | 169° |
| 2026-05-03 21:34 | 30.66636 | -83.27580 | 37135 ft | 436 kts | 168° |
| 2026-05-03 21:35 | 30.61130 | -83.24608 | 37154 ft | 436 kts | 168° |
| 2026-05-03 21:35 | 30.55622 | -83.21637 | 37149 ft | 436 kts | 168° |
| 2026-05-03 21:36 | 30.50118 | -83.18674 | 37162 ft | 436 kts | 168° |
| 2026-05-03 21:36 | 30.44612 | -83.15712 | 37141 ft | 436 kts | 168° |
| 2026-05-03 21:37 | 30.39111 | -83.12761 | 37154 ft | 435 kts | 169° |
| 2026-05-03 21:37 | 30.33615 | -83.09822 | 37161 ft | 435 kts | 169° |
| 2026-05-03 21:38 | 30.28122 | -83.06884 | 37151 ft | 435 kts | 169° |
| 2026-05-03 21:38 | 30.22630 | -83.03949 | 37150 ft | 435 kts | 169° |
| 2026-05-03 21:39 | 30.17140 | -83.01019 | 37109 ft | 435 kts | 169° |
| 2026-05-03 21:39 | 30.11642 | -82.98094 | 37131 ft | 435 kts | 169° |
| 2026-05-03 21:40 | 30.06165 | -82.95183 | 37134 ft | 435 kts | 169° |
| 2026-05-03 21:40 | 30.00659 | -82.92260 | 37137 ft | 435 kts | 169° |
| 2026-05-03 21:41 | 29.95156 | -82.89337 | 37141 ft | 435 kts | 169° |
| 2026-05-03 21:41 | 29.89657 | -82.86418 | 37078 ft | 435 kts | 169° |
| 2026-05-03 21:42 | 29.84156 | -82.83502 | 37099 ft | 435 kts | 169° |
| 2026-05-03 21:42 | 29.78651 | -82.80587 | 37111 ft | 435 kts | 169° |
| 2026-05-03 21:43 | 29.73139 | -82.77678 | 37079 ft | 435 kts | 169° |
| 2026-05-03 21:43 | 29.67630 | -82.74776 | 37099 ft | 435 kts | 169° |
| 2026-05-03 21:44 | 29.62115 | -82.71872 | 37065 ft | 435 kts | 169° |
| 2026-05-03 21:44 | 29.56610 | -82.68968 | 37092 ft | 435 kts | 169° |
| 2026-05-03 21:45 | 29.51100 | -82.66068 | 37104 ft | 435 kts | 169° |
| 2026-05-03 21:45 | 29.45596 | -82.63177 | 37109 ft | 435 kts | 169° |
| 2026-05-03 21:46 | 29.40077 | -82.60284 | 37110 ft | 435 kts | 169° |
| 2026-05-03 21:46 | 29.34565 | -82.57403 | 37108 ft | 435 kts | 169° |
| 2026-05-03 21:47 | 29.29050 | -82.54526 | 37081 ft | 434 kts | 171° |
| 2026-05-03 21:47 | 29.26251 | -82.53412 | 37100 ft | 418 kts | 180° |
| 2026-05-03 21:47 | 29.23483 | -82.52827 | 37105 ft | 403 kts | 188° |
| 2026-05-03 21:48 | 29.20725 | -82.52706 | 37107 ft | 392 kts | 193° |
| 2026-05-03 21:48 | 29.17996 | -82.52722 | 37104 ft | 392 kts | 193° |
| 2026-05-03 21:48 | 29.12533 | -82.52733 | 37101 ft | 392 kts | 193° |
| 2026-05-03 21:49 | 29.07072 | -82.52723 | 37099 ft | 393 kts | 193° |
| 2026-05-03 21:49 | 29.01611 | -82.52706 | 37055 ft | 392 kts | 193° |
| 2026-05-03 21:50 | 28.96139 | -82.52708 | 37062 ft | 393 kts | 193° |
| 2026-05-03 21:50 | 28.90672 | -82.52708 | 37076 ft | 393 kts | 193° |
| 2026-05-03 21:51 | 28.85199 | -82.52700 | 37081 ft | 393 kts | 193° |
| 2026-05-03 21:51 | 28.79758 | -82.52701 | 37103 ft | 393 kts | 193° |
| 2026-05-03 21:52 | 28.74284 | -82.52695 | 37050 ft | 393 kts | 193° |
| 2026-05-03 21:52 | 28.68806 | -82.52692 | 37060 ft | 394 kts | 193° |
| 2026-05-03 21:53 | 28.63324 | -82.52692 | 37074 ft | 394 kts | 193° |
| 2026-05-03 21:53 | 28.57835 | -82.52692 | 37086 ft | 394 kts | 193° |
| 2026-05-03 21:54 | 28.52344 | -82.52686 | 37095 ft | 395 kts | 193° |
| 2026-05-03 21:54 | 28.46846 | -82.52683 | 37102 ft | 395 kts | 193° |
| 2026-05-03 21:55 | 28.41337 | -82.52686 | 37060 ft | 396 kts | 192° |
| 2026-05-03 21:55 | 28.35816 | -82.52681 | 37074 ft | 397 kts | 192° |
| 2026-05-03 21:56 | 28.30277 | -82.52676 | 37080 ft | 398 kts | 192° |
| 2026-05-03 21:56 | 28.24743 | -82.52674 | 37088 ft | 398 kts | 192° |
| 2026-05-03 21:57 | 28.19235 | -82.52674 | 37093 ft | 398 kts | 192° |
| 2026-05-03 21:57 | 28.13694 | -82.52669 | 37051 ft | 398 kts | 192° |
| 2026-05-03 21:58 | 28.08143 | -82.52669 | 37051 ft | 399 kts | 192° |
| 2026-05-03 21:58 | 28.02575 | -82.52664 | 37063 ft | 400 kts | 192° |
| 2026-05-03 21:59 | 27.99751 | -82.52427 | 37071 ft | 415 kts | 183° |
| 2026-05-03 21:59 | 27.96900 | -82.51613 | 37073 ft | 429 kts | 176° |
| 2026-05-03 21:59 | 27.91210 | -82.49581 | 37059 ft | 429 kts | 175° |
| 2026-05-03 22:00 | 27.85512 | -82.47547 | 37017 ft | 430 kts | 175° |
| 2026-05-03 22:00 | 27.79800 | -82.45516 | 37032 ft | 430 kts | 175° |
| 2026-05-03 22:01 | 27.74086 | -82.43491 | 37048 ft | 431 kts | 175° |
| 2026-05-03 22:01 | 27.68359 | -82.41465 | 37067 ft | 431 kts | 175° |
| 2026-05-03 22:02 | 27.62628 | -82.39438 | 37070 ft | 431 kts | 175° |
| 2026-05-03 22:02 | 27.56898 | -82.37420 | 37070 ft | 432 kts | 175° |
| 2026-05-03 22:03 | 27.51164 | -82.35406 | 37081 ft | 432 kts | 175° |
| 2026-05-03 22:03 | 27.45425 | -82.33383 | 37078 ft | 432 kts | 175° |
| 2026-05-03 22:04 | 27.39684 | -82.31353 | 37080 ft | 433 kts | 175° |
| 2026-05-03 22:04 | 27.36843 | -82.30075 | 37035 ft | 450 kts | 166° |
| 2026-05-03 22:04 | 27.34039 | -82.28355 | 36782 ft | 465 kts | 163° |
| 2026-05-03 22:05 | 27.31212 | -82.26563 | 36542 ft | 467 kts | 163° |
| 2026-05-03 22:05 | 27.28414 | -82.24779 | 36289 ft | 466 kts | 163° |
| 2026-05-03 22:05 | 27.25598 | -82.22978 | 35992 ft | 465 kts | 162° |
| 2026-05-03 22:05 | 27.22779 | -82.21177 | 35754 ft | 463 kts | 162° |
| 2026-05-03 22:06 | 27.19979 | -82.19392 | 35510 ft | 462 kts | 163° |
| 2026-05-03 22:06 | 27.17189 | -82.17617 | 35232 ft | 460 kts | 163° |
| 2026-05-03 22:06 | 27.14395 | -82.15848 | 34596 ft | 460 kts | 163° |
| 2026-05-03 22:06 | 27.11641 | -82.14107 | 34119 ft | 457 kts | 163° |
| 2026-05-03 22:07 | 27.08876 | -82.12361 | 33539 ft | 455 kts | 162° |
| 2026-05-03 22:07 | 27.06124 | -82.10624 | 33011 ft | 451 kts | 162° |
| 2026-05-03 22:07 | 27.03401 | -82.08904 | 32486 ft | 448 kts | 161° |
| 2026-05-03 22:07 | 27.00691 | -82.07189 | 31955 ft | 445 kts | 161° |
| 2026-05-03 22:08 | 26.98004 | -82.05469 | 31428 ft | 445 kts | 158° |
| 2026-05-03 22:08 | 26.95482 | -82.03399 | 30898 ft | 455 kts | 147° |
| 2026-05-03 22:08 | 26.93224 | -82.00872 | 30368 ft | 459 kts | 141° |
| 2026-05-03 22:08 | 26.91038 | -81.98277 | 29802 ft | 460 kts | 141° |
| 2026-05-03 22:09 | 26.88778 | -81.95614 | 29269 ft | 483 kts | 141° |
| 2026-05-03 22:09 | 26.86406 | -81.92835 | 28682 ft | 497 kts | 140° |
| 2026-05-03 22:09 | 26.84825 | -81.90975 | 28303 ft | 499 kts | 140° |
| 2026-05-03 22:10 | 26.80074 | -81.85340 | 27154 ft | 494 kts | 140° |
| 2026-05-03 22:10 | 26.77725 | -81.82547 | 26587 ft | 490 kts | 140° |
| 2026-05-03 22:10 | 26.75396 | -81.79792 | 26023 ft | 486 kts | 140° |
| 2026-05-03 22:10 | 26.73073 | -81.77070 | 25464 ft | 481 kts | 141° |
| 2026-05-03 22:11 | 26.70759 | -81.74388 | 24896 ft | 477 kts | 141° |
| 2026-05-03 22:11 | 26.68458 | -81.71733 | 24346 ft | 473 kts | 141° |
| 2026-05-03 22:11 | 26.66175 | -81.69101 | 23816 ft | 469 kts | 141° |
| 2026-05-03 22:11 | 26.63912 | -81.66485 | 23212 ft | 466 kts | 140° |
| 2026-05-03 22:12 | 26.61847 | -81.63683 | 22629 ft | 467 kts | 133° |
| 2026-05-03 22:12 | 26.59909 | -81.60790 | 22128 ft | 463 kts | 133° |
| 2026-05-03 22:12 | 26.57988 | -81.57921 | 21566 ft | 459 kts | 133° |
| 2026-05-03 22:12 | 26.56105 | -81.55114 | 21040 ft | 455 kts | 133° |
| 2026-05-03 22:13 | 26.54191 | -81.52266 | 20496 ft | 451 kts | 133° |
| 2026-05-03 22:13 | 26.52313 | -81.49480 | 19964 ft | 447 kts | 133° |
| 2026-05-03 22:13 | 26.50469 | -81.46748 | 19442 ft | 444 kts | 133° |
| 2026-05-03 22:13 | 26.48613 | -81.44005 | 18917 ft | 441 kts | 132° |
| 2026-05-03 22:14 | 26.46767 | -81.41275 | 18400 ft | 438 kts | 132° |
| 2026-05-03 22:14 | 26.44936 | -81.38568 | 17785 ft | 436 kts | 132° |
| 2026-05-03 22:14 | 26.43124 | -81.35887 | 17291 ft | 431 kts | 132° |
| 2026-05-03 22:14 | 26.41329 | -81.33226 | 16779 ft | 427 kts | 132° |
| 2026-05-03 22:15 | 26.39516 | -81.30630 | 16282 ft | 422 kts | 134° |
| 2026-05-03 22:15 | 26.37666 | -81.28114 | 15780 ft | 417 kts | 135° |
| 2026-05-03 22:15 | 26.35798 | -81.25652 | 15293 ft | 414 kts | 135° |
| 2026-05-03 22:15 | 26.33932 | -81.23222 | 14798 ft | 411 kts | 135° |
| 2026-05-03 22:16 | 26.32085 | -81.20811 | 14313 ft | 408 kts | 135° |
| 2026-05-03 22:16 | 26.30257 | -81.18411 | 13825 ft | 405 kts | 135° |
| 2026-05-03 22:16 | 26.28448 | -81.16019 | 13305 ft | 402 kts | 134° |
| 2026-05-03 22:16 | 26.26653 | -81.13639 | 12836 ft | 400 kts | 134° |
| 2026-05-03 22:17 | 26.24871 | -81.11284 | 12361 ft | 395 kts | 134° |
| 2026-05-03 22:17 | 26.23106 | -81.08959 | 11895 ft | 392 kts | 134° |
| 2026-05-03 22:17 | 26.21349 | -81.06650 | 11417 ft | 389 kts | 134° |
| 2026-05-03 22:17 | 26.19605 | -81.04362 | 10962 ft | 386 kts | 134° |
| 2026-05-03 22:18 | 26.17900 | -81.02124 | 10704 ft | 366 kts | 134° |
| 2026-05-03 22:18 | 26.16316 | -81.00034 | 10558 ft | 340 kts | 133° |
| 2026-05-03 22:18 | 26.15035 | -80.97905 | 10291 ft | 326 kts | 119° |
| 2026-05-03 22:18 | 26.14303 | -80.95543 | 9758 ft | 322 kts | 102° |
| 2026-05-03 22:19 | 26.13965 | -80.93131 | 9154 ft | 317 kts | 101° |
| 2026-05-03 22:19 | 26.13594 | -80.90756 | 8838 ft | 310 kts | 102° |
| 2026-05-03 22:19 | 26.13193 | -80.88403 | 8477 ft | 308 kts | 102° |
| 2026-05-03 22:19 | 26.12788 | -80.86065 | 8100 ft | 308 kts | 102° |
| 2026-05-03 22:20 | 26.12380 | -80.83720 | 7728 ft | 308 kts | 102° |
| 2026-05-03 22:20 | 26.11979 | -80.81399 | 7410 ft | 305 kts | 102° |
| 2026-05-03 22:20 | 26.11588 | -80.79095 | 7183 ft | 297 kts | 102° |
| 2026-05-03 22:20 | 26.11223 | -80.76915 | 7059 ft | 277 kts | 102° |
| 2026-05-03 22:21 | 26.10884 | -80.74884 | 6925 ft | 258 kts | 102° |
| 2026-05-03 22:21 | 26.10563 | -80.72956 | 6635 ft | 251 kts | 103° |
| 2026-05-03 22:21 | 26.10245 | -80.71057 | 6460 ft | 249 kts | 103° |
| 2026-05-03 22:21 | 26.09926 | -80.69172 | 6315 ft | 248 kts | 103° |
| 2026-05-03 22:22 | 26.09608 | -80.67292 | 6180 ft | 247 kts | 102° |
| 2026-05-03 22:22 | 26.09300 | -80.65445 | 6043 ft | 236 kts | 102° |
| 2026-05-03 22:22 | 26.09007 | -80.63702 | 5915 ft | 223 kts | 102° |
| 2026-05-03 22:22 | 26.08731 | -80.62050 | 5740 ft | 213 kts | 103° |
| 2026-05-03 22:23 | 26.08457 | -80.60436 | 5687 ft | 213 kts | 103° |
| 2026-05-03 22:23 | 26.08181 | -80.58825 | 5630 ft | 213 kts | 102° |
| 2026-05-03 22:23 | 26.07907 | -80.57217 | 5484 ft | 211 kts | 103° |
| 2026-05-03 22:23 | 26.07634 | -80.55621 | 5368 ft | 210 kts | 103° |
| 2026-05-03 22:24 | 26.07362 | -80.54027 | 5260 ft | 209 kts | 103° |
| 2026-05-03 22:24 | 26.07063 | -80.52441 | 5154 ft | 210 kts | 107° |
| 2026-05-03 22:24 | 26.06817 | -80.50841 | 5057 ft | 211 kts | 96° |
| 2026-05-03 22:24 | 26.06748 | -80.49205 | 5003 ft | 211 kts | 92° |
| 2026-05-03 22:25 | 26.06734 | -80.47569 | 5009 ft | 212 kts | 91° |
| 2026-05-03 22:25 | 26.06728 | -80.45930 | 5003 ft | 212 kts | 91° |
| 2026-05-03 22:25 | 26.06722 | -80.44289 | 4833 ft | 211 kts | 91° |
| 2026-05-03 22:25 | 26.06716 | -80.42666 | 4580 ft | 209 kts | 91° |
| 2026-05-03 22:26 | 26.06712 | -80.41054 | 4317 ft | 208 kts | 91° |
| 2026-05-03 22:26 | 26.06704 | -80.39448 | 4044 ft | 208 kts | 91° |
| 2026-05-03 22:26 | 26.06697 | -80.37853 | 3776 ft | 205 kts | 90° |
| 2026-05-03 22:26 | 26.06690 | -80.36269 | 3510 ft | 203 kts | 90° |
| 2026-05-03 22:27 | 26.06683 | -80.34705 | 3250 ft | 202 kts | 90° |
| 2026-05-03 22:27 | 26.06676 | -80.33155 | 2989 ft | 198 kts | 90° |
| 2026-05-03 22:27 | 26.06669 | -80.31630 | 2734 ft | 196 kts | 90° |
| 2026-05-03 22:27 | 26.06662 | -80.30125 | 2480 ft | 194 kts | 89° |
| 2026-05-03 22:28 | 26.06655 | -80.28632 | 2228 ft | 192 kts | 89° |
| 2026-05-03 22:28 | 26.06648 | -80.27151 | 1977 ft | 190 kts | 89° |
| 2026-05-03 22:28 | 26.06641 | -80.25728 | 1737 ft | 178 kts | 89° |
| 2026-05-03 22:28 | 26.06634 | -80.24416 | 1528 ft | 158 kts | 89° |
| 2026-05-03 22:29 | 26.06628 | -80.23260 | 1322 ft | 146 kts | 88° |
| 2026-05-03 22:29 | 26.06622 | -80.22141 | 1131 ft | 142 kts | 87° |
| 2026-05-03 22:29 | 26.06616 | -80.21047 | 947 ft | 141 kts | 86° |
| 2026-05-03 22:29 | 26.06611 | -80.19962 | 770 ft | 140 kts | 88° |
| 2026-05-03 22:30 | 26.06605 | -80.18880 | 596 ft | 141 kts | 86° |
| 2026-05-03 22:30 | 26.06599 | -80.17793 | 405 ft | 140 kts | 88° |
| 2026-05-03 22:30 | 26.06593 | -80.16705 | 225 ft | 141 kts | 85° |
| 2026-05-03 22:30 | 26.06590 | -80.15615 | 40 ft | 140 kts | 87° |
| 2026-05-03 22:31 | 26.06590 | -80.14800 | 18 ft | 45 kts | 92° |
| 2026-05-03 22:31 | 26.06631 | -80.14684 | 19 ft | 6 kts | 30° |
| 2026-05-03 22:31 | 26.06640 | -80.14680 | 18 ft | 3 kts | 17° |
| 2026-05-03 22:31 | 26.06672 | -80.14687 | 18 ft | 6 kts | 328° |
| 2026-05-03 22:32 | 26.06687 | -80.14735 | 19 ft | 8 kts | 276° |
| 2026-05-03 22:32 | 26.06690 | -80.14799 | 20 ft | 9 kts | 273° |
| 2026-05-03 22:32 | 26.06695 | -80.14873 | 21 ft | 10 kts | 279° |
| 2026-05-03 22:32 | 26.06744 | -80.14915 | 22 ft | 4 kts | 342° |
| 2026-05-03 22:33 | 26.06752 | -80.14925 | 22 ft | 0 kts | 309° |
| 2026-05-03 22:33 | 26.06764 | -80.14912 | 24 ft | 6 kts | 69° |
| 2026-05-03 22:33 | 26.06767 | -80.14807 | 21 ft | 21 kts | 89° |
| 2026-05-03 22:33 | 26.06838 | -80.14720 | 18 ft | 18 kts | 331° |
| 2026-05-03 22:34 | 26.06936 | -80.14761 | 19 ft | 17 kts | 45° |
| 2026-05-03 22:34 | 26.06935 | -80.14660 | 19 ft | 14 kts | 92° |
| 2026-05-03 22:34 | 26.06934 | -80.14612 | 19 ft | 0 kts | 91° |
| 2026-05-03 22:34 | 26.06934 | -80.14611 | 19 ft | 0 kts | 91° |